sensor_id;sensor_type;location;lat;lon;timestamp;P1;durP1;ratioP1;P2;durP2;ratioP2
51838;SDS011;37886;53.174;6.368;2022-11-02T00:00:10;12.85;;;2.28;;
51838;SDS011;37886;53.174;6.368;2022-11-02T00:02:41;17.92;;;2.95;;
51838;SDS011;37886;53.174;6.368;2022-11-02T00:05:09;19.92;;;2.45;;
51838;SDS011;37886;53.174;6.368;2022-11-02T00:07:36;12.75;;;2.15;;
51838;SDS011;37886;53.174;6.368;2022-11-02T00:10:02;11.57;;;2.33;;
51838;SDS011;37886;53.174;6.368;2022-11-02T00:12:28;11.75;;;2.42;;
51838;SDS011;37886;53.174;6.368;2022-11-02T00:14:53;14.48;;;2.50;;
51838;SDS011;37886;53.174;6.368;2022-11-02T00:17:19;10.98;;;2.30;;
51838;SDS011;37886;53.174;6.368;2022-11-02T00:19:45;13.18;;;2.55;;
51838;SDS011;37886;53.174;6.368;2022-11-02T00:22:11;11.88;;;2.13;;
51838;SDS011;37886;53.174;6.368;2022-11-02T00:24:36;11.60;;;2.75;;
51838;SDS011;37886;53.174;6.368;2022-11-02T00:27:02;15.38;;;2.83;;
51838;SDS011;37886;53.174;6.368;2022-11-02T00:29:28;9.73;;;2.20;;
51838;SDS011;37886;53.174;6.368;2022-11-02T00:31:54;11.32;;;2.13;;
51838;SDS011;37886;53.174;6.368;2022-11-02T00:34:19;12.38;;;2.60;;
51838;SDS011;37886;53.174;6.368;2022-11-02T00:36:45;13.77;;;2.17;;
51838;SDS011;37886;53.174;6.368;2022-11-02T00:39:11;10.15;;;2.03;;
51838;SDS011;37886;53.174;6.368;2022-11-02T00:41:37;9.10;;;2.10;;
51838;SDS011;37886;53.174;6.368;2022-11-02T00:44:02;9.57;;;2.15;;
51838;SDS011;37886;53.174;6.368;2022-11-02T00:46:28;7.68;;;2.33;;
51838;SDS011;37886;53.174;6.368;2022-11-02T00:48:54;7.32;;;2.05;;
51838;SDS011;37886;53.174;6.368;2022-11-02T00:51:19;9.88;;;2.35;;
51838;SDS011;37886;53.174;6.368;2022-11-02T00:53:45;6.28;;;2.00;;
51838;SDS011;37886;53.174;6.368;2022-11-02T00:56:11;9.15;;;2.22;;
51838;SDS011;37886;53.174;6.368;2022-11-02T00:58:36;8.55;;;2.20;;
51838;SDS011;37886;53.174;6.368;2022-11-02T01:01:05;8.48;;;1.88;;
51838;SDS011;37886;53.174;6.368;2022-11-02T01:03:32;9.97;;;2.00;;
51838;SDS011;37886;53.174;6.368;2022-11-02T01:05:57;7.82;;;1.85;;
51838;SDS011;37886;53.174;6.368;2022-11-02T01:08:23;6.80;;;1.65;;
51838;SDS011;37886;53.174;6.368;2022-11-02T01:10:49;10.57;;;2.08;;
51838;SDS011;37886;53.174;6.368;2022-11-02T01:13:15;7.95;;;1.92;;
51838;SDS011;37886;53.174;6.368;2022-11-02T01:15:41;8.32;;;2.38;;
51838;SDS011;37886;53.174;6.368;2022-11-02T01:18:07;7.35;;;1.75;;
51838;SDS011;37886;53.174;6.368;2022-11-02T01:20:33;7.82;;;1.63;;
51838;SDS011;37886;53.174;6.368;2022-11-02T01:22:58;6.82;;;1.52;;
51838;SDS011;37886;53.174;6.368;2022-11-02T01:25:24;5.30;;;1.50;;
51838;SDS011;37886;53.174;6.368;2022-11-02T01:27:50;9.52;;;1.52;;
51838;SDS011;37886;53.174;6.368;2022-11-02T01:30:16;7.32;;;1.48;;
51838;SDS011;37886;53.174;6.368;2022-11-02T01:32:41;9.25;;;1.80;;
51838;SDS011;37886;53.174;6.368;2022-11-02T01:35:07;3.35;;;1.10;;
51838;SDS011;37886;53.174;6.368;2022-11-02T01:37:34;4.25;;;1.40;;
51838;SDS011;37886;53.174;6.368;2022-11-02T01:40:00;6.47;;;1.48;;
51838;SDS011;37886;53.174;6.368;2022-11-02T01:42:26;4.68;;;1.30;;
51838;SDS011;37886;53.174;6.368;2022-11-02T01:44:52;4.68;;;1.45;;
51838;SDS011;37886;53.174;6.368;2022-11-02T01:47:19;4.72;;;1.48;;
51838;SDS011;37886;53.174;6.368;2022-11-02T01:50:01;5.30;;;1.20;;
51838;SDS011;37886;53.174;6.368;2022-11-02T01:52:37;4.57;;;1.20;;
51838;SDS011;37886;53.174;6.368;2022-11-02T01:55:05;6.13;;;1.52;;
51838;SDS011;37886;53.174;6.368;2022-11-02T01:57:47;6.63;;;1.55;;
51838;SDS011;37886;53.174;6.368;2022-11-02T02:00:17;4.20;;;1.30;;
51838;SDS011;37886;53.174;6.368;2022-11-02T02:02:50;7.63;;;1.58;;
51838;SDS011;37886;53.174;6.368;2022-11-02T02:05:24;6.03;;;1.27;;
51838;SDS011;37886;53.174;6.368;2022-11-02T02:07:50;4.15;;;1.10;;
51838;SDS011;37886;53.174;6.368;2022-11-02T02:10:17;2.88;;;0.90;;
51838;SDS011;37886;53.174;6.368;2022-11-02T02:12:43;5.57;;;0.93;;
51838;SDS011;37886;53.174;6.368;2022-11-02T02:15:10;2.45;;;1.08;;
51838;SDS011;37886;53.174;6.368;2022-11-02T02:17:46;2.92;;;0.90;;
51838;SDS011;37886;53.174;6.368;2022-11-02T02:21:10;3.85;;;1.17;;
51838;SDS011;37886;53.174;6.368;2022-11-02T02:24:10;4.28;;;1.70;;
51838;SDS011;37886;53.174;6.368;2022-11-02T02:29:21;10.27;;;3.05;;
51838;SDS011;37886;53.174;6.368;2022-11-02T02:31:56;9.60;;;3.55;;
51838;SDS011;37886;53.174;6.368;2022-11-02T02:34:29;12.27;;;3.72;;
51838;SDS011;37886;53.174;6.368;2022-11-02T02:37:46;9.30;;;3.20;;
51838;SDS011;37886;53.174;6.368;2022-11-02T02:39:59;10.07;;;3.78;;
51838;SDS011;37886;53.174;6.368;2022-11-02T02:42:58;9.27;;;3.78;;
51838;SDS011;37886;53.174;6.368;2022-11-02T02:45:35;11.57;;;4.13;;
51838;SDS011;37886;53.174;6.368;2022-11-02T02:48:13;17.85;;;4.93;;
51838;SDS011;37886;53.174;6.368;2022-11-02T02:50:48;11.20;;;4.05;;
51838;SDS011;37886;53.174;6.368;2022-11-02T02:53:15;9.75;;;3.63;;
51838;SDS011;37886;53.174;6.368;2022-11-02T02:55:55;9.48;;;3.30;;
51838;SDS011;37886;53.174;6.368;2022-11-02T02:58:25;14.75;;;2.80;;
51838;SDS011;37886;53.174;6.368;2022-11-02T03:00:55;8.98;;;2.75;;
51838;SDS011;37886;53.174;6.368;2022-11-02T03:03:23;13.40;;;2.33;;
51838;SDS011;37886;53.174;6.368;2022-11-02T03:06:04;9.52;;;2.50;;
51838;SDS011;37886;53.174;6.368;2022-11-02T03:08:47;6.32;;;2.20;;
51838;SDS011;37886;53.174;6.368;2022-11-02T03:11:36;9.63;;;2.03;;
51838;SDS011;37886;53.174;6.368;2022-11-02T03:19:23;7.43;;;1.40;;
51838;SDS011;37886;53.174;6.368;2022-11-02T03:25:07;7.65;;;1.42;;
51838;SDS011;37886;53.174;6.368;2022-11-02T03:27:47;7.50;;;1.40;;
51838;SDS011;37886;53.174;6.368;2022-11-02T03:30:23;13.52;;;1.67;;
51838;SDS011;37886;53.174;6.368;2022-11-02T03:38:40;6.72;;;1.58;;
51838;SDS011;37886;53.174;6.368;2022-11-02T03:41:17;7.45;;;1.63;;
51838;SDS011;37886;53.174;6.368;2022-11-02T03:43:47;6.53;;;1.58;;
51838;SDS011;37886;53.174;6.368;2022-11-02T03:46:15;7.63;;;1.83;;
51838;SDS011;37886;53.174;6.368;2022-11-02T03:48:44;14.45;;;1.90;;
51838;SDS011;37886;53.174;6.368;2022-11-02T03:51:12;7.63;;;1.60;;
51838;SDS011;37886;53.174;6.368;2022-11-02T03:59:03;10.70;;;2.28;;
51838;SDS011;37886;53.174;6.368;2022-11-02T04:01:29;20.73;;;2.17;;
51838;SDS011;37886;53.174;6.368;2022-11-02T04:04:02;13.35;;;2.05;;
51838;SDS011;37886;53.174;6.368;2022-11-02T04:06:28;8.57;;;1.48;;
51838;SDS011;37886;53.174;6.368;2022-11-02T04:08:55;10.23;;;1.75;;
51838;SDS011;37886;53.174;6.368;2022-11-02T04:11:20;13.32;;;2.10;;
51838;SDS011;37886;53.174;6.368;2022-11-02T04:14:05;14.20;;;2.72;;
51838;SDS011;37886;53.174;6.368;2022-11-02T04:16:49;13.80;;;2.33;;
51838;SDS011;37886;53.174;6.368;2022-11-02T04:19:37;11.02;;;2.35;;
51838;SDS011;37886;53.174;6.368;2022-11-02T04:22:03;12.82;;;2.55;;
51838;SDS011;37886;53.174;6.368;2022-11-02T04:24:47;14.60;;;2.55;;
51838;SDS011;37886;53.174;6.368;2022-11-02T04:27:32;15.68;;;1.85;;
51838;SDS011;37886;53.174;6.368;2022-11-02T04:29:58;18.33;;;2.60;;
51838;SDS011;37886;53.174;6.368;2022-11-02T04:32:24;15.65;;;2.20;;
51838;SDS011;37886;53.174;6.368;2022-11-02T04:35:08;14.43;;;2.55;;
51838;SDS011;37886;53.174;6.368;2022-11-02T04:37:38;9.40;;;2.30;;
51838;SDS011;37886;53.174;6.368;2022-11-02T04:40:22;16.05;;;2.25;;
51838;SDS011;37886;53.174;6.368;2022-11-02T04:42:48;11.40;;;1.98;;
51838;SDS011;37886;53.174;6.368;2022-11-02T04:45:14;17.33;;;2.40;;
51838;SDS011;37886;53.174;6.368;2022-11-02T04:47:40;11.77;;;2.30;;
51838;SDS011;37886;53.174;6.368;2022-11-02T04:50:06;11.35;;;2.15;;
51838;SDS011;37886;53.174;6.368;2022-11-02T04:52:32;13.55;;;2.15;;
51838;SDS011;37886;53.174;6.368;2022-11-02T04:54:58;12.80;;;2.10;;
51838;SDS011;37886;53.174;6.368;2022-11-02T04:57:24;13.48;;;2.28;;
51838;SDS011;37886;53.174;6.368;2022-11-02T04:59:49;11.05;;;2.78;;
51838;SDS011;37886;53.174;6.368;2022-11-02T05:02:15;16.13;;;2.65;;
51838;SDS011;37886;53.174;6.368;2022-11-02T05:04:46;11.85;;;2.88;;
51838;SDS011;37886;53.174;6.368;2022-11-02T05:07:14;14.57;;;3.13;;
51838;SDS011;37886;53.174;6.368;2022-11-02T05:09:40;12.02;;;2.42;;
51838;SDS011;37886;53.174;6.368;2022-11-02T05:12:08;14.00;;;2.78;;
51838;SDS011;37886;53.174;6.368;2022-11-02T05:14:34;11.95;;;2.42;;
51838;SDS011;37886;53.174;6.368;2022-11-02T05:17:00;14.70;;;2.85;;
51838;SDS011;37886;53.174;6.368;2022-11-02T05:19:26;12.93;;;2.72;;
51838;SDS011;37886;53.174;6.368;2022-11-02T05:21:51;13.02;;;2.55;;
51838;SDS011;37886;53.174;6.368;2022-11-02T05:24:19;16.40;;;3.35;;
51838;SDS011;37886;53.174;6.368;2022-11-02T05:26:46;10.65;;;2.60;;
51838;SDS011;37886;53.174;6.368;2022-11-02T05:29:12;17.83;;;3.70;;
51838;SDS011;37886;53.174;6.368;2022-11-02T05:31:37;14.00;;;3.53;;
51838;SDS011;37886;53.174;6.368;2022-11-02T05:34:03;17.75;;;3.60;;
51838;SDS011;37886;53.174;6.368;2022-11-02T05:36:29;17.73;;;3.42;;
51838;SDS011;37886;53.174;6.368;2022-11-02T05:38:54;16.45;;;3.00;;
51838;SDS011;37886;53.174;6.368;2022-11-02T05:41:21;17.52;;;3.88;;
51838;SDS011;37886;53.174;6.368;2022-11-02T05:43:47;17.17;;;3.53;;
51838;SDS011;37886;53.174;6.368;2022-11-02T05:46:13;14.98;;;3.47;;
51838;SDS011;37886;53.174;6.368;2022-11-02T05:48:39;16.15;;;3.40;;
51838;SDS011;37886;53.174;6.368;2022-11-02T05:51:05;16.95;;;3.47;;
51838;SDS011;37886;53.174;6.368;2022-11-02T05:53:31;19.05;;;3.55;;
51838;SDS011;37886;53.174;6.368;2022-11-02T05:56:01;21.17;;;3.40;;
51838;SDS011;37886;53.174;6.368;2022-11-02T05:58:29;18.50;;;4.00;;
51838;SDS011;37886;53.174;6.368;2022-11-02T06:01:01;22.02;;;3.55;;
51838;SDS011;37886;53.174;6.368;2022-11-02T06:03:28;13.30;;;2.95;;
51838;SDS011;37886;53.174;6.368;2022-11-02T06:05:59;16.02;;;3.78;;
51838;SDS011;37886;53.174;6.368;2022-11-02T06:10:52;19.23;;;3.67;;
51838;SDS011;37886;53.174;6.368;2022-11-02T06:13:18;15.73;;;2.70;;
51838;SDS011;37886;53.174;6.368;2022-11-02T06:15:44;18.73;;;3.80;;
51838;SDS011;37886;53.174;6.368;2022-11-02T06:18:10;15.95;;;3.22;;
51838;SDS011;37886;53.174;6.368;2022-11-02T06:20:36;23.17;;;3.50;;
51838;SDS011;37886;53.174;6.368;2022-11-02T06:23:01;17.13;;;3.08;;
51838;SDS011;37886;53.174;6.368;2022-11-02T06:25:27;19.40;;;3.03;;
51838;SDS011;37886;53.174;6.368;2022-11-02T06:27:53;22.83;;;3.72;;
51838;SDS011;37886;53.174;6.368;2022-11-02T06:30:22;12.75;;;2.53;;
51838;SDS011;37886;53.174;6.368;2022-11-02T06:32:52;18.73;;;3.45;;
51838;SDS011;37886;53.174;6.368;2022-11-02T06:35:19;17.50;;;2.78;;
51838;SDS011;37886;53.174;6.368;2022-11-02T06:37:46;13.50;;;3.15;;
51838;SDS011;37886;53.174;6.368;2022-11-02T06:40:14;18.30;;;3.05;;
51838;SDS011;37886;53.174;6.368;2022-11-02T06:42:40;16.80;;;2.88;;
51838;SDS011;37886;53.174;6.368;2022-11-02T06:45:05;16.38;;;3.45;;
51838;SDS011;37886;53.174;6.368;2022-11-02T06:47:32;17.02;;;3.05;;
51838;SDS011;37886;53.174;6.368;2022-11-02T06:50:00;17.05;;;2.72;;
51838;SDS011;37886;53.174;6.368;2022-11-02T06:52:26;15.40;;;2.80;;
51838;SDS011;37886;53.174;6.368;2022-11-02T06:54:52;14.77;;;2.80;;
51838;SDS011;37886;53.174;6.368;2022-11-02T06:57:19;14.43;;;2.70;;
51838;SDS011;37886;53.174;6.368;2022-11-02T06:59:45;18.25;;;3.00;;
51838;SDS011;37886;53.174;6.368;2022-11-02T07:02:11;19.88;;;2.70;;
51838;SDS011;37886;53.174;6.368;2022-11-02T07:04:37;19.73;;;3.35;;
51838;SDS011;37886;53.174;6.368;2022-11-02T07:07:02;24.67;;;3.13;;
51838;SDS011;37886;53.174;6.368;2022-11-02T07:09:28;21.35;;;2.50;;
51838;SDS011;37886;53.174;6.368;2022-11-02T07:11:54;17.52;;;2.60;;
51838;SDS011;37886;53.174;6.368;2022-11-02T07:14:19;17.08;;;2.92;;
51838;SDS011;37886;53.174;6.368;2022-11-02T07:16:45;20.40;;;2.85;;
51838;SDS011;37886;53.174;6.368;2022-11-02T07:19:11;14.63;;;2.80;;
51838;SDS011;37886;53.174;6.368;2022-11-02T07:21:36;13.98;;;2.40;;
51838;SDS011;37886;53.174;6.368;2022-11-02T07:24:02;12.27;;;2.00;;
51838;SDS011;37886;53.174;6.368;2022-11-02T07:26:28;14.93;;;2.53;;
51838;SDS011;37886;53.174;6.368;2022-11-02T07:28:54;15.38;;;3.35;;
51838;SDS011;37886;53.174;6.368;2022-11-02T07:31:20;12.63;;;1.92;;
51838;SDS011;37886;53.174;6.368;2022-11-02T07:33:46;15.25;;;2.13;;
51838;SDS011;37886;53.174;6.368;2022-11-02T07:36:11;10.82;;;2.28;;
51838;SDS011;37886;53.174;6.368;2022-11-02T07:38:37;9.27;;;1.95;;
51838;SDS011;37886;53.174;6.368;2022-11-02T07:41:03;10.75;;;1.80;;
51838;SDS011;37886;53.174;6.368;2022-11-02T07:43:29;8.88;;;1.73;;
51838;SDS011;37886;53.174;6.368;2022-11-02T07:45:54;9.77;;;1.95;;
51838;SDS011;37886;53.174;6.368;2022-11-02T07:48:20;10.70;;;2.20;;
51838;SDS011;37886;53.174;6.368;2022-11-02T07:50:46;8.45;;;2.50;;
51838;SDS011;37886;53.174;6.368;2022-11-02T07:53:11;11.88;;;2.40;;
51838;SDS011;37886;53.174;6.368;2022-11-02T07:55:37;7.32;;;1.98;;
51838;SDS011;37886;53.174;6.368;2022-11-02T07:58:05;11.35;;;1.88;;
51838;SDS011;37886;53.174;6.368;2022-11-02T08:00:34;15.75;;;2.53;;
51838;SDS011;37886;53.174;6.368;2022-11-02T08:03:02;9.18;;;2.20;;
51838;SDS011;37886;53.174;6.368;2022-11-02T08:05:30;10.27;;;1.92;;
51838;SDS011;37886;53.174;6.368;2022-11-02T08:08:02;9.50;;;2.17;;
51838;SDS011;37886;53.174;6.368;2022-11-02T08:10:30;8.65;;;2.20;;
51838;SDS011;37886;53.174;6.368;2022-11-02T08:12:56;8.85;;;1.50;;
51838;SDS011;37886;53.174;6.368;2022-11-02T08:15:22;8.55;;;2.17;;
51838;SDS011;37886;53.174;6.368;2022-11-02T08:18:01;9.75;;;1.67;;
51838;SDS011;37886;53.174;6.368;2022-11-02T08:20:37;9.23;;;1.52;;
51838;SDS011;37886;53.174;6.368;2022-11-02T08:23:03;12.05;;;2.53;;
51838;SDS011;37886;53.174;6.368;2022-11-02T08:25:29;7.05;;;2.03;;
51838;SDS011;37886;53.174;6.368;2022-11-02T08:27:56;15.07;;;2.90;;
51838;SDS011;37886;53.174;6.368;2022-11-02T08:30:23;14.90;;;3.55;;
51838;SDS011;37886;53.174;6.368;2022-11-02T08:32:49;9.70;;;1.85;;
51838;SDS011;37886;53.174;6.368;2022-11-02T08:35:15;9.50;;;2.00;;
51838;SDS011;37886;53.174;6.368;2022-11-02T08:37:41;11.70;;;2.30;;
51838;SDS011;37886;53.174;6.368;2022-11-02T08:40:07;13.55;;;2.40;;
51838;SDS011;37886;53.174;6.368;2022-11-02T08:42:33;9.32;;;2.03;;
51838;SDS011;37886;53.174;6.368;2022-11-02T08:45:00;15.48;;;2.75;;
51838;SDS011;37886;53.174;6.368;2022-11-02T08:47:26;11.63;;;2.00;;
51838;SDS011;37886;53.174;6.368;2022-11-02T08:49:51;9.23;;;2.00;;
51838;SDS011;37886;53.174;6.368;2022-11-02T08:52:17;16.38;;;2.42;;
51838;SDS011;37886;53.174;6.368;2022-11-02T08:54:43;11.40;;;3.03;;
51838;SDS011;37886;53.174;6.368;2022-11-02T08:57:08;13.25;;;2.97;;
51838;SDS011;37886;53.174;6.368;2022-11-02T08:59:34;12.93;;;2.58;;
51838;SDS011;37886;53.174;6.368;2022-11-02T09:02:00;11.93;;;2.42;;
51838;SDS011;37886;53.174;6.368;2022-11-02T09:04:25;14.50;;;2.75;;
51838;SDS011;37886;53.174;6.368;2022-11-02T09:06:51;15.27;;;2.65;;
51838;SDS011;37886;53.174;6.368;2022-11-02T09:09:17;13.23;;;2.10;;
51838;SDS011;37886;53.174;6.368;2022-11-02T09:11:42;16.55;;;2.35;;
51838;SDS011;37886;53.174;6.368;2022-11-02T09:14:08;11.50;;;2.13;;
51838;SDS011;37886;53.174;6.368;2022-11-02T09:16:34;26.02;;;3.35;;
51838;SDS011;37886;53.174;6.368;2022-11-02T09:18:59;20.98;;;2.70;;
51838;SDS011;37886;53.174;6.368;2022-11-02T09:21:25;17.30;;;2.78;;
51838;SDS011;37886;53.174;6.368;2022-11-02T09:23:51;12.75;;;2.30;;
51838;SDS011;37886;53.174;6.368;2022-11-02T09:26:16;16.70;;;2.50;;
51838;SDS011;37886;53.174;6.368;2022-11-02T09:28:42;23.00;;;4.10;;
51838;SDS011;37886;53.174;6.368;2022-11-02T09:31:08;12.48;;;3.00;;
51838;SDS011;37886;53.174;6.368;2022-11-02T09:33:34;15.68;;;2.38;;
51838;SDS011;37886;53.174;6.368;2022-11-02T09:36:01;13.70;;;2.33;;
51838;SDS011;37886;53.174;6.368;2022-11-02T09:38:28;12.82;;;2.38;;
51838;SDS011;37886;53.174;6.368;2022-11-02T09:46:39;16.27;;;2.20;;
51838;SDS011;37886;53.174;6.368;2022-11-02T09:49:15;11.87;;;2.50;;
51838;SDS011;37886;53.174;6.368;2022-11-02T09:51:45;21.13;;;3.10;;
51838;SDS011;37886;53.174;6.368;2022-11-02T09:54:15;16.45;;;2.85;;
51838;SDS011;37886;53.174;6.368;2022-11-02T09:56:42;15.27;;;2.72;;
51838;SDS011;37886;53.174;6.368;2022-11-02T09:59:19;15.43;;;2.80;;
51838;SDS011;37886;53.174;6.368;2022-11-02T10:01:54;18.92;;;2.45;;
51838;SDS011;37886;53.174;6.368;2022-11-02T10:09:59;22.08;;;2.78;;
51838;SDS011;37886;53.174;6.368;2022-11-02T10:12:36;10.45;;;2.42;;
51838;SDS011;37886;53.174;6.368;2022-11-02T10:17:38;18.35;;;2.22;;
51838;SDS011;37886;53.174;6.368;2022-11-02T10:20:27;22.10;;;2.85;;
51838;SDS011;37886;53.174;6.368;2022-11-02T10:23:03;12.65;;;2.78;;
51838;SDS011;37886;53.174;6.368;2022-11-02T10:25:32;14.10;;;2.70;;
51838;SDS011;37886;53.174;6.368;2022-11-02T10:28:02;14.38;;;2.90;;
51838;SDS011;37886;53.174;6.368;2022-11-02T10:30:34;16.70;;;2.38;;
51838;SDS011;37886;53.174;6.368;2022-11-02T10:33:01;15.00;;;2.60;;
51838;SDS011;37886;53.174;6.368;2022-11-02T10:47:26;15.45;;;3.08;;
51838;SDS011;37886;53.174;6.368;2022-11-02T10:50:13;16.30;;;3.22;;
51838;SDS011;37886;53.174;6.368;2022-11-02T10:52:53;13.73;;;2.10;;
51838;SDS011;37886;53.174;6.368;2022-11-02T10:55:21;10.13;;;2.35;;
51838;SDS011;37886;53.174;6.368;2022-11-02T10:57:59;17.48;;;2.45;;
51838;SDS011;37886;53.174;6.368;2022-11-02T11:00:38;12.55;;;2.15;;
51838;SDS011;37886;53.174;6.368;2022-11-02T11:08:25;17.30;;;2.47;;
51838;SDS011;37886;53.174;6.368;2022-11-02T11:13:55;22.88;;;3.00;;
51838;SDS011;37886;53.174;6.368;2022-11-02T11:16:57;20.35;;;3.45;;
51838;SDS011;37886;53.174;6.368;2022-11-02T11:21:58;12.82;;;1.92;;
51838;SDS011;37886;53.174;6.368;2022-11-02T11:27:04;12.15;;;2.10;;
51838;SDS011;37886;53.174;6.368;2022-11-02T11:29:37;8.07;;;1.85;;
51838;SDS011;37886;53.174;6.368;2022-11-02T11:32:04;11.52;;;2.17;;
51838;SDS011;37886;53.174;6.368;2022-11-02T11:34:55;9.93;;;1.98;;
51838;SDS011;37886;53.174;6.368;2022-11-02T11:37:23;11.50;;;2.42;;
51838;SDS011;37886;53.174;6.368;2022-11-02T11:40:36;11.52;;;2.90;;
51838;SDS011;37886;53.174;6.368;2022-11-02T11:42:41;12.45;;;2.70;;
51838;SDS011;37886;53.174;6.368;2022-11-02T11:45:19;9.52;;;1.75;;
51838;SDS011;37886;53.174;6.368;2022-11-02T11:47:55;8.20;;;1.70;;
51838;SDS011;37886;53.174;6.368;2022-11-02T11:50:31;13.73;;;2.50;;
51838;SDS011;37886;53.174;6.368;2022-11-02T11:55:53;9.68;;;1.77;;
51838;SDS011;37886;53.174;6.368;2022-11-02T11:58:26;13.50;;;1.90;;
51838;SDS011;37886;53.174;6.368;2022-11-02T12:06:19;7.80;;;1.67;;
51838;SDS011;37886;53.174;6.368;2022-11-02T12:09:22;9.75;;;1.83;;
51838;SDS011;37886;53.174;6.368;2022-11-02T12:12:14;14.77;;;2.20;;
51838;SDS011;37886;53.174;6.368;2022-11-02T12:18:11;16.38;;;2.95;;
51838;SDS011;37886;53.174;6.368;2022-11-02T12:23:59;11.95;;;2.22;;
51838;SDS011;37886;53.174;6.368;2022-11-02T12:31:45;12.82;;;2.10;;
51838;SDS011;37886;53.174;6.368;2022-11-02T12:37:21;18.30;;;2.28;;
51838;SDS011;37886;53.174;6.368;2022-11-02T12:40:10;15.20;;;2.72;;
51838;SDS011;37886;53.174;6.368;2022-11-02T12:48:26;18.00;;;2.13;;
51838;SDS011;37886;53.174;6.368;2022-11-02T12:51:20;11.25;;;2.10;;
51838;SDS011;37886;53.174;6.368;2022-11-02T12:56:30;12.32;;;2.63;;
51838;SDS011;37886;53.174;6.368;2022-11-02T12:59:20;13.38;;;2.67;;
51838;SDS011;37886;53.174;6.368;2022-11-02T13:04:46;13.60;;;2.13;;
51838;SDS011;37886;53.174;6.368;2022-11-02T13:07:21;10.95;;;2.47;;
51838;SDS011;37886;53.174;6.368;2022-11-02T13:09:59;11.43;;;2.33;;
51838;SDS011;37886;53.174;6.368;2022-11-02T13:12:31;11.20;;;2.28;;
51838;SDS011;37886;53.174;6.368;2022-11-02T13:15:00;17.20;;;3.17;;
51838;SDS011;37886;53.174;6.368;2022-11-02T13:17:38;13.25;;;2.90;;
51838;SDS011;37886;53.174;6.368;2022-11-02T13:20:14;11.10;;;2.15;;
51838;SDS011;37886;53.174;6.368;2022-11-02T13:22:54;10.38;;;1.90;;
51838;SDS011;37886;53.174;6.368;2022-11-02T13:25:33;17.80;;;2.90;;
51838;SDS011;37886;53.174;6.368;2022-11-02T13:30:38;16.27;;;3.13;;
51838;SDS011;37886;53.174;6.368;2022-11-02T13:33:13;11.70;;;2.53;;
51838;SDS011;37886;53.174;6.368;2022-11-02T13:35:49;14.38;;;2.22;;
51838;SDS011;37886;53.174;6.368;2022-11-02T13:38:43;14.70;;;2.60;;
51838;SDS011;37886;53.174;6.368;2022-11-02T13:41:30;12.73;;;2.20;;
51838;SDS011;37886;53.174;6.368;2022-11-02T13:44:22;17.10;;;2.83;;
51838;SDS011;37886;53.174;6.368;2022-11-02T13:49:49;13.88;;;2.60;;
51838;SDS011;37886;53.174;6.368;2022-11-02T13:58:05;11.05;;;1.80;;
51838;SDS011;37886;53.174;6.368;2022-11-02T14:00:37;10.85;;;2.13;;
51838;SDS011;37886;53.174;6.368;2022-11-02T14:05:56;16.38;;;2.90;;
51838;SDS011;37886;53.174;6.368;2022-11-02T14:08:32;16.00;;;2.97;;
51838;SDS011;37886;53.174;6.368;2022-11-02T14:11:03;13.15;;;3.30;;
51838;SDS011;37886;53.174;6.368;2022-11-02T14:16:42;12.38;;;2.50;;
51838;SDS011;37886;53.174;6.368;2022-11-02T14:32:15;14.18;;;2.45;;
51838;SDS011;37886;53.174;6.368;2022-11-02T14:40:16;14.90;;;2.63;;
51838;SDS011;37886;53.174;6.368;2022-11-02T14:43:09;10.32;;;1.98;;
51838;SDS011;37886;53.174;6.368;2022-11-02T14:48:40;17.42;;;2.70;;
51838;SDS011;37886;53.174;6.368;2022-11-02T14:51:17;16.25;;;2.78;;
51838;SDS011;37886;53.174;6.368;2022-11-02T14:53:47;15.45;;;3.00;;
51838;SDS011;37886;53.174;6.368;2022-11-02T14:56:18;22.50;;;2.97;;
51838;SDS011;37886;53.174;6.368;2022-11-02T14:58:48;16.77;;;3.38;;
51838;SDS011;37886;53.174;6.368;2022-11-02T15:01:18;12.68;;;2.50;;
51838;SDS011;37886;53.174;6.368;2022-11-02T15:03:44;17.50;;;3.35;;
51838;SDS011;37886;53.174;6.368;2022-11-02T15:06:14;15.10;;;2.42;;
51838;SDS011;37886;53.174;6.368;2022-11-02T15:08:54;11.60;;;2.63;;
51838;SDS011;37886;53.174;6.368;2022-11-02T15:17:52;14.73;;;2.25;;
51838;SDS011;37886;53.174;6.368;2022-11-02T15:19:52;11.30;;;2.00;;
51838;SDS011;37886;53.174;6.368;2022-11-02T15:22:43;11.57;;;2.60;;
51838;SDS011;37886;53.174;6.368;2022-11-02T15:25:16;16.40;;;2.50;;
51838;SDS011;37886;53.174;6.368;2022-11-02T15:27:50;20.30;;;2.80;;
51838;SDS011;37886;53.174;6.368;2022-11-02T15:30:21;15.63;;;2.05;;
51838;SDS011;37886;53.174;6.368;2022-11-02T15:32:49;15.27;;;2.50;;
51838;SDS011;37886;53.174;6.368;2022-11-02T15:35:21;15.00;;;2.63;;
51838;SDS011;37886;53.174;6.368;2022-11-02T15:37:57;13.40;;;2.03;;
51838;SDS011;37886;53.174;6.368;2022-11-02T15:40:28;19.33;;;2.50;;
51838;SDS011;37886;53.174;6.368;2022-11-02T15:43:12;19.98;;;2.47;;
51838;SDS011;37886;53.174;6.368;2022-11-02T15:46:16;12.55;;;2.35;;
51838;SDS011;37886;53.174;6.368;2022-11-02T15:48:50;13.63;;;2.40;;
51838;SDS011;37886;53.174;6.368;2022-11-02T15:51:26;11.95;;;2.65;;
51838;SDS011;37886;53.174;6.368;2022-11-02T15:54:18;19.75;;;3.53;;
51838;SDS011;37886;53.174;6.368;2022-11-02T15:56:46;17.25;;;2.90;;
51838;SDS011;37886;53.174;6.368;2022-11-02T16:06:56;16.85;;;3.78;;
51838;SDS011;37886;53.174;6.368;2022-11-02T16:09:32;15.60;;;3.13;;
51838;SDS011;37886;53.174;6.368;2022-11-02T16:12:15;13.27;;;2.90;;
51838;SDS011;37886;53.174;6.368;2022-11-02T16:14:43;12.48;;;3.03;;
51838;SDS011;37886;53.174;6.368;2022-11-02T16:17:17;15.52;;;3.35;;
51838;SDS011;37886;53.174;6.368;2022-11-02T16:19:43;14.13;;;3.17;;
51838;SDS011;37886;53.174;6.368;2022-11-02T16:22:09;20.58;;;3.72;;
51838;SDS011;37886;53.174;6.368;2022-11-02T16:24:38;11.80;;;3.40;;
51838;SDS011;37886;53.174;6.368;2022-11-02T16:27:09;16.25;;;3.30;;
51838;SDS011;37886;53.174;6.368;2022-11-02T16:29:36;15.73;;;3.25;;
51838;SDS011;37886;53.174;6.368;2022-11-02T16:32:07;10.70;;;3.30;;
51838;SDS011;37886;53.174;6.368;2022-11-02T16:34:36;14.32;;;2.65;;
51838;SDS011;37886;53.174;6.368;2022-11-02T16:37:03;19.10;;;3.20;;
51838;SDS011;37886;53.174;6.368;2022-11-02T16:39:30;13.88;;;3.15;;
51838;SDS011;37886;53.174;6.368;2022-11-02T16:42:01;13.80;;;3.00;;
51838;SDS011;37886;53.174;6.368;2022-11-02T16:44:39;19.17;;;3.40;;
51838;SDS011;37886;53.174;6.368;2022-11-02T16:49:34;14.13;;;3.65;;
51838;SDS011;37886;53.174;6.368;2022-11-02T16:52:24;19.27;;;4.10;;
51838;SDS011;37886;53.174;6.368;2022-11-02T16:54:55;15.05;;;3.47;;
51838;SDS011;37886;53.174;6.368;2022-11-02T16:57:22;16.85;;;3.05;;
51838;SDS011;37886;53.174;6.368;2022-11-02T16:59:55;15.07;;;3.20;;
51838;SDS011;37886;53.174;6.368;2022-11-02T17:05:00;15.48;;;3.67;;
51838;SDS011;37886;53.174;6.368;2022-11-02T17:07:28;24.38;;;4.03;;
51838;SDS011;37886;53.174;6.368;2022-11-02T17:09:58;13.63;;;3.38;;
51838;SDS011;37886;53.174;6.368;2022-11-02T17:15:22;15.63;;;3.30;;
51838;SDS011;37886;53.174;6.368;2022-11-02T17:18:13;14.27;;;3.60;;
51838;SDS011;37886;53.174;6.368;2022-11-02T17:20:38;19.75;;;3.85;;
51838;SDS011;37886;53.174;6.368;2022-11-02T17:23:47;15.60;;;3.58;;
51838;SDS011;37886;53.174;6.368;2022-11-02T17:26:40;20.13;;;3.65;;
51838;SDS011;37886;53.174;6.368;2022-11-02T17:28:48;15.15;;;3.15;;
51838;SDS011;37886;53.174;6.368;2022-11-02T17:33:49;14.85;;;3.67;;
51838;SDS011;37886;53.174;6.368;2022-11-02T17:36:16;13.40;;;2.75;;
51838;SDS011;37886;53.174;6.368;2022-11-02T17:38:42;15.57;;;2.90;;
51838;SDS011;37886;53.174;6.368;2022-11-02T17:41:09;15.80;;;3.42;;